LFRN 281600Z AUTO 22010KT 9999 BKN013 OVC020 13/12 Q1010 TEMPO 3000 RA BKN009 OVC013

ElémentsDécodage
LFRN Station météo située sur l'aérodrome de RENNES Saint-Jacques
281600Z émis le 28 du mois à 16h00 UTC
AUTO Bulletin édité par un automate
22010KT vent du 220°, 10 noeuds
9999 visibilité horizontale supérieure à 10 Km
BKN013 nuages morcelés (5/8 à 7/8) à 1300 pieds
OVC020 couverture nuageuse totale (8/8) à 2000 pieds
13/12 température 13°C, point de rosée 12°C
 soit une humidité relative de 94%
Q1010 la pression au niveau de la mer (QNH) est de 1010 hPa
TEMPO fluctuation temporaire prévue
3000 visibilité horizontale de 3000 mètres
RA pluie
BKN009 nuages morcelés (5/8 à 7/8) à 900 pieds
OVC013 couverture nuageuse totale (8/8) à 1300 pieds